sensor_id;sensor_type;location;lat;lon;timestamp;P1;durP1;ratioP1;P2;durP2;ratioP2
11197;SDS011;5655;48.744;9.162;2024-03-08T00:02:34;29.27;;;17.20;;
11197;SDS011;5655;48.744;9.162;2024-03-08T00:05:10;33.20;;;17.90;;
11197;SDS011;5655;48.744;9.162;2024-03-08T00:07:35;29.97;;;17.13;;
11197;SDS011;5655;48.744;9.162;2024-03-08T00:10:04;33.93;;;18.93;;
11197;SDS011;5655;48.744;9.162;2024-03-08T00:12:31;30.83;;;18.03;;
11197;SDS011;5655;48.744;9.162;2024-03-08T00:14:57;28.67;;;16.67;;
11197;SDS011;5655;48.744;9.162;2024-03-08T00:17:23;30.33;;;17.37;;
11197;SDS011;5655;48.744;9.162;2024-03-08T00:19:50;29.93;;;15.90;;
11197;SDS011;5655;48.744;9.162;2024-03-08T00:22:15;28.27;;;17.73;;
11197;SDS011;5655;48.744;9.162;2024-03-08T00:24:41;27.65;;;17.23;;
11197;SDS011;5655;48.744;9.162;2024-03-08T00:27:10;29.15;;;17.25;;
11197;SDS011;5655;48.744;9.162;2024-03-08T00:29:38;28.27;;;16.15;;
11197;SDS011;5655;48.744;9.162;2024-03-08T00:32:08;30.60;;;16.93;;
11197;SDS011;5655;48.744;9.162;2024-03-08T00:34:37;31.05;;;17.75;;
11197;SDS011;5655;48.744;9.162;2024-03-08T00:37:02;29.90;;;17.65;;
11197;SDS011;5655;48.744;9.162;2024-03-08T00:39:29;31.60;;;17.48;;
11197;SDS011;5655;48.744;9.162;2024-03-08T00:42:09;27.58;;;17.15;;
11197;SDS011;5655;48.744;9.162;2024-03-08T00:44:44;27.23;;;16.60;;
11197;SDS011;5655;48.744;9.162;2024-03-08T00:47:12;29.77;;;17.93;;
11197;SDS011;5655;48.744;9.162;2024-03-08T00:49:38;28.50;;;17.03;;
11197;SDS011;5655;48.744;9.162;2024-03-08T00:52:15;31.63;;;17.50;;
11197;SDS011;5655;48.744;9.162;2024-03-08T00:54:59;29.20;;;17.60;;
11197;SDS011;5655;48.744;9.162;2024-03-08T00:57:25;30.63;;;17.70;;
11197;SDS011;5655;48.744;9.162;2024-03-08T00:59:50;27.27;;;17.23;;
11197;SDS011;5655;48.744;9.162;2024-03-08T01:02:15;29.47;;;16.53;;
11197;SDS011;5655;48.744;9.162;2024-03-08T01:04:43;31.00;;;17.33;;
11197;SDS011;5655;48.744;9.162;2024-03-08T01:07:09;28.40;;;16.93;;
11197;SDS011;5655;48.744;9.162;2024-03-08T01:09:34;27.33;;;17.07;;
11197;SDS011;5655;48.744;9.162;2024-03-08T01:12:02;28.70;;;17.60;;
11197;SDS011;5655;48.744;9.162;2024-03-08T01:14:28;28.00;;;16.80;;
11197;SDS011;5655;48.744;9.162;2024-03-08T01:16:55;30.30;;;18.53;;
11197;SDS011;5655;48.744;9.162;2024-03-08T01:19:20;27.27;;;17.00;;
11197;SDS011;5655;48.744;9.162;2024-03-08T01:21:46;29.33;;;17.17;;
11197;SDS011;5655;48.744;9.162;2024-03-08T01:24:26;30.25;;;18.42;;
11197;SDS011;5655;48.744;9.162;2024-03-08T01:26:52;34.63;;;17.37;;
11197;SDS011;5655;48.744;9.162;2024-03-08T01:29:17;32.17;;;17.53;;
11197;SDS011;5655;48.744;9.162;2024-03-08T01:31:42;30.97;;;17.50;;
11197;SDS011;5655;48.744;9.162;2024-03-08T01:34:08;33.83;;;18.73;;
11197;SDS011;5655;48.744;9.162;2024-03-08T01:36:33;31.00;;;18.00;;
11197;SDS011;5655;48.744;9.162;2024-03-08T01:38:58;35.17;;;18.90;;
11197;SDS011;5655;48.744;9.162;2024-03-08T01:41:24;33.03;;;17.77;;
11197;SDS011;5655;48.744;9.162;2024-03-08T01:43:49;32.43;;;17.63;;
11197;SDS011;5655;48.744;9.162;2024-03-08T01:46:18;30.50;;;17.90;;
11197;SDS011;5655;48.744;9.162;2024-03-08T01:48:47;27.63;;;16.13;;
11197;SDS011;5655;48.744;9.162;2024-03-08T01:51:13;29.17;;;17.23;;
11197;SDS011;5655;48.744;9.162;2024-03-08T01:53:40;26.50;;;16.27;;
11197;SDS011;5655;48.744;9.162;2024-03-08T01:56:07;29.20;;;17.27;;
11197;SDS011;5655;48.744;9.162;2024-03-08T01:58:33;28.83;;;17.17;;
11197;SDS011;5655;48.744;9.162;2024-03-08T02:01:00;28.27;;;15.10;;
11197;SDS011;5655;48.744;9.162;2024-03-08T02:03:29;30.30;;;16.87;;
11197;SDS011;5655;48.744;9.162;2024-03-08T02:05:56;29.17;;;16.40;;
11197;SDS011;5655;48.744;9.162;2024-03-08T02:08:23;27.80;;;15.80;;
11197;SDS011;5655;48.744;9.162;2024-03-08T02:10:49;28.27;;;15.70;;
11197;SDS011;5655;48.744;9.162;2024-03-08T02:13:15;27.50;;;16.83;;
11197;SDS011;5655;48.744;9.162;2024-03-08T02:18:19;26.67;;;14.97;;
11197;SDS011;5655;48.744;9.162;2024-03-08T02:21:06;28.47;;;16.57;;
11197;SDS011;5655;48.744;9.162;2024-03-08T02:23:32;28.63;;;15.73;;
11197;SDS011;5655;48.744;9.162;2024-03-08T02:25:58;24.73;;;14.47;;
11197;SDS011;5655;48.744;9.162;2024-03-08T02:28:23;24.37;;;15.43;;
11197;SDS011;5655;48.744;9.162;2024-03-08T02:30:56;27.27;;;15.30;;
11197;SDS011;5655;48.744;9.162;2024-03-08T02:33:22;25.67;;;15.07;;
11197;SDS011;5655;48.744;9.162;2024-03-08T02:35:48;25.27;;;14.03;;
11197;SDS011;5655;48.744;9.162;2024-03-08T02:38:14;23.27;;;14.70;;
11197;SDS011;5655;48.744;9.162;2024-03-08T02:40:45;26.10;;;15.07;;
11197;SDS011;5655;48.744;9.162;2024-03-08T02:43:15;25.93;;;14.63;;
11197;SDS011;5655;48.744;9.162;2024-03-08T02:45:41;23.23;;;14.10;;
11197;SDS011;5655;48.744;9.162;2024-03-08T02:48:07;24.83;;;14.87;;
11197;SDS011;5655;48.744;9.162;2024-03-08T02:50:33;24.97;;;14.87;;
11197;SDS011;5655;48.744;9.162;2024-03-08T02:52:59;25.60;;;15.07;;
11197;SDS011;5655;48.744;9.162;2024-03-08T02:55:25;27.93;;;15.23;;
11197;SDS011;5655;48.744;9.162;2024-03-08T02:57:51;25.30;;;14.90;;
11197;SDS011;5655;48.744;9.162;2024-03-08T03:00:17;23.57;;;14.03;;
11197;SDS011;5655;48.744;9.162;2024-03-08T03:02:44;25.23;;;15.30;;
11197;SDS011;5655;48.744;9.162;2024-03-08T03:05:10;27.97;;;15.23;;
11197;SDS011;5655;48.744;9.162;2024-03-08T03:07:39;25.03;;;13.97;;
11197;SDS011;5655;48.744;9.162;2024-03-08T03:10:05;26.53;;;14.33;;
11197;SDS011;5655;48.744;9.162;2024-03-08T03:12:32;25.03;;;14.50;;
11197;SDS011;5655;48.744;9.162;2024-03-08T03:14:58;27.97;;;15.30;;
11197;SDS011;5655;48.744;9.162;2024-03-08T03:17:24;28.00;;;16.13;;
11197;SDS011;5655;48.744;9.162;2024-03-08T03:19:50;33.50;;;15.77;;
11197;SDS011;5655;48.744;9.162;2024-03-08T03:22:16;27.37;;;15.47;;
11197;SDS011;5655;48.744;9.162;2024-03-08T03:24:43;24.60;;;15.30;;
11197;SDS011;5655;48.744;9.162;2024-03-08T03:27:08;29.47;;;16.20;;
11197;SDS011;5655;48.744;9.162;2024-03-08T03:29:40;30.53;;;16.13;;
11197;SDS011;5655;48.744;9.162;2024-03-08T03:32:07;27.80;;;15.40;;
11197;SDS011;5655;48.744;9.162;2024-03-08T03:34:33;24.03;;;14.90;;
11197;SDS011;5655;48.744;9.162;2024-03-08T03:37:01;27.37;;;15.33;;
11197;SDS011;5655;48.744;9.162;2024-03-08T03:39:27;26.20;;;15.63;;
11197;SDS011;5655;48.744;9.162;2024-03-08T03:41:56;28.30;;;16.37;;
11197;SDS011;5655;48.744;9.162;2024-03-08T03:44:22;27.70;;;16.43;;
11197;SDS011;5655;48.744;9.162;2024-03-08T03:46:48;25.87;;;16.40;;
11197;SDS011;5655;48.744;9.162;2024-03-08T03:49:15;28.03;;;15.70;;
11197;SDS011;5655;48.744;9.162;2024-03-08T03:51:41;26.87;;;16.63;;
11197;SDS011;5655;48.744;9.162;2024-03-08T03:54:06;30.30;;;16.47;;
11197;SDS011;5655;48.744;9.162;2024-03-08T03:56:32;31.63;;;17.13;;
11197;SDS011;5655;48.744;9.162;2024-03-08T03:58:57;27.33;;;16.80;;
11197;SDS011;5655;48.744;9.162;2024-03-08T04:01:23;26.30;;;15.33;;
11197;SDS011;5655;48.744;9.162;2024-03-08T04:03:49;28.33;;;16.40;;
11197;SDS011;5655;48.744;9.162;2024-03-08T04:06:14;26.73;;;15.97;;
11197;SDS011;5655;48.744;9.162;2024-03-08T04:08:40;29.87;;;16.73;;
11197;SDS011;5655;48.744;9.162;2024-03-08T04:11:06;28.23;;;16.33;;
11197;SDS011;5655;48.744;9.162;2024-03-08T04:13:33;34.53;;;17.43;;
11197;SDS011;5655;48.744;9.162;2024-03-08T04:15:58;30.13;;;17.00;;
11197;SDS011;5655;48.744;9.162;2024-03-08T04:18:24;29.37;;;17.73;;
11197;SDS011;5655;48.744;9.162;2024-03-08T04:20:49;29.53;;;17.10;;
11197;SDS011;5655;48.744;9.162;2024-03-08T04:23:15;38.00;;;22.13;;
11197;SDS011;5655;48.744;9.162;2024-03-08T04:25:41;35.10;;;19.20;;
11197;SDS011;5655;48.744;9.162;2024-03-08T04:28:07;28.70;;;16.50;;
11197;SDS011;5655;48.744;9.162;2024-03-08T04:30:36;27.07;;;16.43;;
11197;SDS011;5655;48.744;9.162;2024-03-08T04:33:02;30.17;;;17.13;;
11197;SDS011;5655;48.744;9.162;2024-03-08T04:35:28;28.67;;;16.83;;
11197;SDS011;5655;48.744;9.162;2024-03-08T04:37:54;27.87;;;17.27;;
11197;SDS011;5655;48.744;9.162;2024-03-08T04:40:19;34.00;;;17.77;;
11197;SDS011;5655;48.744;9.162;2024-03-08T04:42:44;32.87;;;18.43;;
11197;SDS011;5655;48.744;9.162;2024-03-08T04:45:10;29.50;;;17.27;;
11197;SDS011;5655;48.744;9.162;2024-03-08T04:47:38;37.27;;;17.93;;
11197;SDS011;5655;48.744;9.162;2024-03-08T04:50:04;28.97;;;17.10;;
11197;SDS011;5655;48.744;9.162;2024-03-08T04:52:30;27.40;;;16.23;;
11197;SDS011;5655;48.744;9.162;2024-03-08T04:54:55;31.23;;;17.73;;
11197;SDS011;5655;48.744;9.162;2024-03-08T04:57:21;31.70;;;17.37;;
11197;SDS011;5655;48.744;9.162;2024-03-08T04:59:46;32.10;;;19.33;;
11197;SDS011;5655;48.744;9.162;2024-03-08T05:02:11;35.90;;;19.27;;
11197;SDS011;5655;48.744;9.162;2024-03-08T05:04:37;33.57;;;18.83;;
11197;SDS011;5655;48.744;9.162;2024-03-08T05:07:02;34.93;;;18.67;;
11197;SDS011;5655;48.744;9.162;2024-03-08T05:09:27;28.97;;;17.60;;
11197;SDS011;5655;48.744;9.162;2024-03-08T05:11:54;33.03;;;18.00;;
11197;SDS011;5655;48.744;9.162;2024-03-08T05:14:19;31.90;;;18.30;;
11197;SDS011;5655;48.744;9.162;2024-03-08T05:16:45;34.60;;;17.87;;
11197;SDS011;5655;48.744;9.162;2024-03-08T05:19:15;34.57;;;19.30;;
11197;SDS011;5655;48.744;9.162;2024-03-08T05:21:43;30.57;;;18.43;;
11197;SDS011;5655;48.744;9.162;2024-03-08T05:24:09;35.63;;;18.73;;
11197;SDS011;5655;48.744;9.162;2024-03-08T05:26:35;32.30;;;17.93;;
11197;SDS011;5655;48.744;9.162;2024-03-08T05:29:00;33.30;;;19.07;;
11197;SDS011;5655;48.744;9.162;2024-03-08T05:31:26;32.57;;;18.93;;
11197;SDS011;5655;48.744;9.162;2024-03-08T05:33:51;31.67;;;17.50;;
11197;SDS011;5655;48.744;9.162;2024-03-08T05:36:19;30.67;;;18.03;;
11197;SDS011;5655;48.744;9.162;2024-03-08T05:38:44;32.37;;;17.83;;
11197;SDS011;5655;48.744;9.162;2024-03-08T05:41:10;33.37;;;18.83;;
11197;SDS011;5655;48.744;9.162;2024-03-08T05:43:37;32.03;;;18.23;;
11197;SDS011;5655;48.744;9.162;2024-03-08T05:46:02;35.03;;;18.93;;
11197;SDS011;5655;48.744;9.162;2024-03-08T05:48:29;39.57;;;20.77;;
11197;SDS011;5655;48.744;9.162;2024-03-08T05:50:57;35.03;;;19.90;;
11197;SDS011;5655;48.744;9.162;2024-03-08T05:53:22;36.23;;;18.93;;
11197;SDS011;5655;48.744;9.162;2024-03-08T05:55:47;32.83;;;18.00;;
11197;SDS011;5655;48.744;9.162;2024-03-08T05:58:14;34.53;;;19.30;;
11197;SDS011;5655;48.744;9.162;2024-03-08T06:00:39;32.97;;;17.87;;
11197;SDS011;5655;48.744;9.162;2024-03-08T06:03:05;33.10;;;18.87;;
11197;SDS011;5655;48.744;9.162;2024-03-08T06:05:30;34.07;;;18.07;;
11197;SDS011;5655;48.744;9.162;2024-03-08T06:07:56;35.13;;;18.57;;
11197;SDS011;5655;48.744;9.162;2024-03-08T06:10:21;34.60;;;19.77;;
11197;SDS011;5655;48.744;9.162;2024-03-08T06:12:46;38.83;;;20.33;;
11197;SDS011;5655;48.744;9.162;2024-03-08T06:15:12;35.33;;;19.37;;
11197;SDS011;5655;48.744;9.162;2024-03-08T06:17:41;32.67;;;19.50;;
11197;SDS011;5655;48.744;9.162;2024-03-08T06:20:06;33.40;;;19.73;;
11197;SDS011;5655;48.744;9.162;2024-03-08T06:22:41;32.57;;;19.07;;
11197;SDS011;5655;48.744;9.162;2024-03-08T06:25:10;39.77;;;20.27;;
11197;SDS011;5655;48.744;9.162;2024-03-08T06:27:38;30.63;;;17.27;;
11197;SDS011;5655;48.744;9.162;2024-03-08T06:30:07;36.00;;;20.07;;
11197;SDS011;5655;48.744;9.162;2024-03-08T06:32:34;33.80;;;18.57;;
11197;SDS011;5655;48.744;9.162;2024-03-08T06:35:01;35.67;;;19.60;;
11197;SDS011;5655;48.744;9.162;2024-03-08T06:37:31;35.67;;;20.87;;
11197;SDS011;5655;48.744;9.162;2024-03-08T06:39:57;36.77;;;19.57;;
11197;SDS011;5655;48.744;9.162;2024-03-08T06:42:22;37.57;;;19.07;;
11197;SDS011;5655;48.744;9.162;2024-03-08T06:44:48;32.23;;;18.87;;
11197;SDS011;5655;48.744;9.162;2024-03-08T06:47:16;38.10;;;18.87;;
11197;SDS011;5655;48.744;9.162;2024-03-08T06:49:44;34.20;;;19.47;;
11197;SDS011;5655;48.744;9.162;2024-03-08T06:52:10;37.20;;;20.03;;
11197;SDS011;5655;48.744;9.162;2024-03-08T06:54:36;31.83;;;18.97;;
11197;SDS011;5655;48.744;9.162;2024-03-08T06:57:02;32.90;;;19.73;;
11197;SDS011;5655;48.744;9.162;2024-03-08T06:59:28;33.23;;;19.47;;
11197;SDS011;5655;48.744;9.162;2024-03-08T07:01:54;39.10;;;19.90;;
11197;SDS011;5655;48.744;9.162;2024-03-08T07:04:19;32.43;;;18.73;;
11197;SDS011;5655;48.744;9.162;2024-03-08T07:06:46;33.13;;;18.97;;
11197;SDS011;5655;48.744;9.162;2024-03-08T07:09:15;34.10;;;19.03;;
11197;SDS011;5655;48.744;9.162;2024-03-08T07:11:41;33.63;;;19.23;;
11197;SDS011;5655;48.744;9.162;2024-03-08T07:14:07;35.13;;;19.30;;
11197;SDS011;5655;48.744;9.162;2024-03-08T07:16:33;35.93;;;19.53;;
11197;SDS011;5655;48.744;9.162;2024-03-08T07:19:00;32.83;;;19.10;;
11197;SDS011;5655;48.744;9.162;2024-03-08T07:21:30;32.70;;;19.43;;
11197;SDS011;5655;48.744;9.162;2024-03-08T07:23:55;33.97;;;19.33;;
11197;SDS011;5655;48.744;9.162;2024-03-08T07:26:26;34.63;;;19.53;;
11197;SDS011;5655;48.744;9.162;2024-03-08T07:28:52;33.40;;;19.40;;
11197;SDS011;5655;48.744;9.162;2024-03-08T07:31:19;31.80;;;18.47;;
11197;SDS011;5655;48.744;9.162;2024-03-08T07:33:51;34.63;;;19.03;;
11197;SDS011;5655;48.744;9.162;2024-03-08T07:36:18;32.43;;;19.50;;
11197;SDS011;5655;48.744;9.162;2024-03-08T07:38:43;34.27;;;18.77;;
11197;SDS011;5655;48.744;9.162;2024-03-08T07:41:11;30.73;;;18.30;;
11197;SDS011;5655;48.744;9.162;2024-03-08T07:43:37;30.03;;;18.67;;
11197;SDS011;5655;48.744;9.162;2024-03-08T07:46:03;33.80;;;19.77;;
11197;SDS011;5655;48.744;9.162;2024-03-08T07:48:28;28.57;;;17.53;;
11197;SDS011;5655;48.744;9.162;2024-03-08T07:50:53;34.80;;;19.10;;
11197;SDS011;5655;48.744;9.162;2024-03-08T07:53:19;33.50;;;18.40;;
11197;SDS011;5655;48.744;9.162;2024-03-08T07:55:44;28.43;;;17.50;;
11197;SDS011;5655;48.744;9.162;2024-03-08T07:58:09;30.67;;;18.17;;
11197;SDS011;5655;48.744;9.162;2024-03-08T08:00:36;31.77;;;17.87;;
11197;SDS011;5655;48.744;9.162;2024-03-08T08:03:01;34.13;;;18.53;;
11197;SDS011;5655;48.744;9.162;2024-03-08T08:05:27;33.50;;;18.57;;
11197;SDS011;5655;48.744;9.162;2024-03-08T08:07:53;32.17;;;18.63;;
11197;SDS011;5655;48.744;9.162;2024-03-08T08:10:18;31.10;;;17.60;;
11197;SDS011;5655;48.744;9.162;2024-03-08T08:12:49;30.73;;;18.40;;
11197;SDS011;5655;48.744;9.162;2024-03-08T08:15:15;32.57;;;19.23;;
11197;SDS011;5655;48.744;9.162;2024-03-08T08:17:44;29.00;;;17.17;;
11197;SDS011;5655;48.744;9.162;2024-03-08T08:20:10;26.87;;;16.43;;
11197;SDS011;5655;48.744;9.162;2024-03-08T08:22:37;29.25;;;17.10;;
11197;SDS011;5655;48.744;9.162;2024-03-08T08:25:04;30.00;;;16.75;;
11197;SDS011;5655;48.744;9.162;2024-03-08T08:27:29;27.47;;;17.23;;
11197;SDS011;5655;48.744;9.162;2024-03-08T08:29:55;30.20;;;16.87;;
11197;SDS011;5655;48.744;9.162;2024-03-08T08:32:21;27.65;;;16.20;;
11197;SDS011;5655;48.744;9.162;2024-03-08T08:34:46;29.42;;;20.40;;
11197;SDS011;5655;48.744;9.162;2024-03-08T08:37:12;28.92;;;17.02;;
11197;SDS011;5655;48.744;9.162;2024-03-08T08:39:37;26.98;;;16.55;;
11197;SDS011;5655;48.744;9.162;2024-03-08T08:42:03;29.37;;;17.77;;
11197;SDS011;5655;48.744;9.162;2024-03-08T08:44:29;29.90;;;17.30;;
11197;SDS011;5655;48.744;9.162;2024-03-08T08:46:56;34.17;;;17.53;;
11197;SDS011;5655;48.744;9.162;2024-03-08T08:49:22;30.47;;;17.57;;
11197;SDS011;5655;48.744;9.162;2024-03-08T08:51:52;26.90;;;16.23;;
11197;SDS011;5655;48.744;9.162;2024-03-08T08:54:17;28.00;;;16.77;;
11197;SDS011;5655;48.744;9.162;2024-03-08T08:56:43;29.27;;;17.13;;
11197;SDS011;5655;48.744;9.162;2024-03-08T08:59:09;29.00;;;17.80;;
11197;SDS011;5655;48.744;9.162;2024-03-08T09:01:35;29.77;;;17.40;;
11197;SDS011;5655;48.744;9.162;2024-03-08T09:04:00;28.52;;;16.25;;
11197;SDS011;5655;48.744;9.162;2024-03-08T09:06:25;27.60;;;15.25;;
11197;SDS011;5655;48.744;9.162;2024-03-08T09:08:51;26.70;;;16.38;;
11197;SDS011;5655;48.744;9.162;2024-03-08T09:11:16;26.90;;;16.80;;
11197;SDS011;5655;48.744;9.162;2024-03-08T09:13:44;29.10;;;16.20;;
11197;SDS011;5655;48.744;9.162;2024-03-08T09:16:11;27.97;;;16.57;;
11197;SDS011;5655;48.744;9.162;2024-03-08T09:18:36;22.53;;;14.20;;
11197;SDS011;5655;48.744;9.162;2024-03-08T09:21:01;26.50;;;16.33;;
11197;SDS011;5655;48.744;9.162;2024-03-08T09:23:28;26.42;;;15.25;;
11197;SDS011;5655;48.744;9.162;2024-03-08T09:25:58;25.98;;;16.08;;
11197;SDS011;5655;48.744;9.162;2024-03-08T09:28:23;26.33;;;16.48;;
11197;SDS011;5655;48.744;9.162;2024-03-08T09:30:49;24.48;;;15.35;;
11197;SDS011;5655;48.744;9.162;2024-03-08T09:33:15;25.35;;;15.45;;
11197;SDS011;5655;48.744;9.162;2024-03-08T09:35:44;30.83;;;16.38;;
11197;SDS011;5655;48.744;9.162;2024-03-08T09:38:11;27.75;;;16.55;;
11197;SDS011;5655;48.744;9.162;2024-03-08T09:40:38;23.42;;;15.73;;
11197;SDS011;5655;48.744;9.162;2024-03-08T09:43:03;25.23;;;15.30;;
11197;SDS011;5655;48.744;9.162;2024-03-08T09:45:29;24.70;;;15.20;;
11197;SDS011;5655;48.744;9.162;2024-03-08T09:48:00;30.17;;;15.15;;
11197;SDS011;5655;48.744;9.162;2024-03-08T09:50:26;28.88;;;16.23;;
11197;SDS011;5655;48.744;9.162;2024-03-08T09:52:54;25.63;;;15.70;;
11197;SDS011;5655;48.744;9.162;2024-03-08T09:55:22;25.60;;;15.37;;
11197;SDS011;5655;48.744;9.162;2024-03-08T09:57:48;24.90;;;15.40;;
11197;SDS011;5655;48.744;9.162;2024-03-08T10:00:34;25.70;;;15.68;;
11197;SDS011;5655;48.744;9.162;2024-03-08T10:03:00;23.92;;;15.07;;
11197;SDS011;5655;48.744;9.162;2024-03-08T10:05:26;26.88;;;15.90;;
11197;SDS011;5655;48.744;9.162;2024-03-08T10:07:52;26.92;;;15.65;;
11197;SDS011;5655;48.744;9.162;2024-03-08T10:10:18;23.67;;;15.27;;
11197;SDS011;5655;48.744;9.162;2024-03-08T10:12:43;22.58;;;14.23;;
11197;SDS011;5655;48.744;9.162;2024-03-08T10:15:10;21.95;;;14.07;;
11197;SDS011;5655;48.744;9.162;2024-03-08T10:17:37;26.52;;;15.13;;
11197;SDS011;5655;48.744;9.162;2024-03-08T10:20:14;24.52;;;14.75;;
11197;SDS011;5655;48.744;9.162;2024-03-08T10:22:40;21.38;;;14.05;;
11197;SDS011;5655;48.744;9.162;2024-03-08T10:25:09;26.60;;;14.95;;
11197;SDS011;5655;48.744;9.162;2024-03-08T10:27:36;23.17;;;14.50;;
11197;SDS011;5655;48.744;9.162;2024-03-08T10:30:01;21.08;;;14.30;;
11197;SDS011;5655;48.744;9.162;2024-03-08T10:32:27;23.83;;;15.07;;
11197;SDS011;5655;48.744;9.162;2024-03-08T10:34:52;24.23;;;14.50;;
11197;SDS011;5655;48.744;9.162;2024-03-08T10:37:19;21.45;;;13.95;;
11197;SDS011;5655;48.744;9.162;2024-03-08T10:40:02;23.20;;;14.45;;
11197;SDS011;5655;48.744;9.162;2024-03-08T10:42:35;23.65;;;14.30;;
11197;SDS011;5655;48.744;9.162;2024-03-08T10:45:19;22.92;;;14.20;;
11197;SDS011;5655;48.744;9.162;2024-03-08T10:50:41;23.63;;;14.13;;
11197;SDS011;5655;48.744;9.162;2024-03-08T10:53:11;22.92;;;15.00;;
11197;SDS011;5655;48.744;9.162;2024-03-08T10:55:39;22.52;;;13.98;;
11197;SDS011;5655;48.744;9.162;2024-03-08T10:58:06;24.60;;;14.40;;
11197;SDS011;5655;48.744;9.162;2024-03-08T11:00:32;22.75;;;13.85;;
11197;SDS011;5655;48.744;9.162;2024-03-08T11:02:58;22.95;;;13.88;;
11197;SDS011;5655;48.744;9.162;2024-03-08T11:05:38;21.75;;;13.65;;
11197;SDS011;5655;48.744;9.162;2024-03-08T11:08:08;22.27;;;14.02;;
11197;SDS011;5655;48.744;9.162;2024-03-08T11:10:50;23.48;;;13.85;;
11197;SDS011;5655;48.744;9.162;2024-03-08T11:19:00;21.30;;;13.85;;
11197;SDS011;5655;48.744;9.162;2024-03-08T11:21:31;20.25;;;13.95;;
11197;SDS011;5655;48.744;9.162;2024-03-08T11:24:08;22.92;;;13.50;;
11197;SDS011;5655;48.744;9.162;2024-03-08T11:26:41;21.50;;;13.40;;
11197;SDS011;5655;48.744;9.162;2024-03-08T11:32:16;20.85;;;13.18;;
11197;SDS011;5655;48.744;9.162;2024-03-08T11:34:43;22.17;;;13.35;;
11197;SDS011;5655;48.744;9.162;2024-03-08T11:37:14;19.35;;;12.25;;
11197;SDS011;5655;48.744;9.162;2024-03-08T11:39:46;17.17;;;11.95;;
11197;SDS011;5655;48.744;9.162;2024-03-08T11:42:16;20.15;;;13.30;;
11197;SDS011;5655;48.744;9.162;2024-03-08T11:44:47;17.92;;;12.23;;
11197;SDS011;5655;48.744;9.162;2024-03-08T11:47:13;23.83;;;13.18;;
11197;SDS011;5655;48.744;9.162;2024-03-08T11:49:40;18.73;;;12.90;;
11197;SDS011;5655;48.744;9.162;2024-03-08T11:52:15;23.10;;;13.73;;
11197;SDS011;5655;48.744;9.162;2024-03-08T11:54:42;20.55;;;13.13;;
11197;SDS011;5655;48.744;9.162;2024-03-08T11:57:08;18.00;;;11.93;;
11197;SDS011;5655;48.744;9.162;2024-03-08T11:59:35;22.92;;;13.98;;
11197;SDS011;5655;48.744;9.162;2024-03-08T12:02:01;22.05;;;14.45;;
11197;SDS011;5655;48.744;9.162;2024-03-08T12:04:30;24.45;;;14.05;;
11197;SDS011;5655;48.744;9.162;2024-03-08T12:06:59;21.50;;;13.50;;
11197;SDS011;5655;48.744;9.162;2024-03-08T12:09:33;21.98;;;13.95;;
11197;SDS011;5655;48.744;9.162;2024-03-08T12:12:01;21.10;;;13.52;;
11197;SDS011;5655;48.744;9.162;2024-03-08T12:14:28;20.85;;;14.18;;
11197;SDS011;5655;48.744;9.162;2024-03-08T12:16:53;22.55;;;13.52;;
11197;SDS011;5655;48.744;9.162;2024-03-08T12:19:19;22.65;;;13.77;;
11197;SDS011;5655;48.744;9.162;2024-03-08T12:21:44;23.40;;;13.77;;
11197;SDS011;5655;48.744;9.162;2024-03-08T12:24:14;24.73;;;14.55;;
11197;SDS011;5655;48.744;9.162;2024-03-08T12:26:41;21.98;;;14.73;;
11197;SDS011;5655;48.744;9.162;2024-03-08T12:31:56;18.48;;;12.75;;
11197;SDS011;5655;48.744;9.162;2024-03-08T12:34:25;23.40;;;13.43;;
11197;SDS011;5655;48.744;9.162;2024-03-08T12:36:56;19.70;;;13.65;;
11197;SDS011;5655;48.744;9.162;2024-03-08T12:39:22;23.13;;;14.35;;
11197;SDS011;5655;48.744;9.162;2024-03-08T12:41:51;22.83;;;13.85;;
11197;SDS011;5655;48.744;9.162;2024-03-08T12:44:17;24.30;;;14.88;;
11197;SDS011;5655;48.744;9.162;2024-03-08T12:46:46;19.15;;;13.25;;
11197;SDS011;5655;48.744;9.162;2024-03-08T12:49:11;19.95;;;13.27;;
11197;SDS011;5655;48.744;9.162;2024-03-08T12:51:37;21.65;;;13.35;;
11197;SDS011;5655;48.744;9.162;2024-03-08T12:54:04;22.40;;;14.32;;
11197;SDS011;5655;48.744;9.162;2024-03-08T12:56:32;21.15;;;13.85;;
11197;SDS011;5655;48.744;9.162;2024-03-08T12:58:59;23.23;;;14.48;;
11197;SDS011;5655;48.744;9.162;2024-03-08T13:01:25;23.70;;;14.98;;
11197;SDS011;5655;48.744;9.162;2024-03-08T13:03:51;23.67;;;14.98;;
11197;SDS011;5655;48.744;9.162;2024-03-08T13:06:17;21.05;;;13.93;;
11197;SDS011;5655;48.744;9.162;2024-03-08T13:08:44;23.25;;;13.68;;
11197;SDS011;5655;48.744;9.162;2024-03-08T13:11:10;20.42;;;14.18;;
11197;SDS011;5655;48.744;9.162;2024-03-08T13:13:39;22.13;;;14.20;;
11197;SDS011;5655;48.744;9.162;2024-03-08T13:16:05;22.05;;;14.30;;
11197;SDS011;5655;48.744;9.162;2024-03-08T13:18:33;20.65;;;12.75;;
11197;SDS011;5655;48.744;9.162;2024-03-08T13:20:59;23.98;;;14.40;;
11197;SDS011;5655;48.744;9.162;2024-03-08T13:23:29;22.33;;;13.27;;
11197;SDS011;5655;48.744;9.162;2024-03-08T13:25:55;17.67;;;12.48;;
11197;SDS011;5655;48.744;9.162;2024-03-08T13:28:22;21.63;;;14.18;;
11197;SDS011;5655;48.744;9.162;2024-03-08T13:30:52;19.95;;;13.00;;
11197;SDS011;5655;48.744;9.162;2024-03-08T13:33:18;22.70;;;14.05;;
11197;SDS011;5655;48.744;9.162;2024-03-08T13:35:44;18.55;;;12.93;;
11197;SDS011;5655;48.744;9.162;2024-03-08T13:38:09;21.23;;;13.73;;
11197;SDS011;5655;48.744;9.162;2024-03-08T13:40:36;20.08;;;13.38;;
11197;SDS011;5655;48.744;9.162;2024-03-08T13:43:02;21.30;;;14.38;;
11197;SDS011;5655;48.744;9.162;2024-03-08T13:45:28;19.02;;;13.05;;
11197;SDS011;5655;48.744;9.162;2024-03-08T13:47:54;23.20;;;14.13;;
11197;SDS011;5655;48.744;9.162;2024-03-08T13:50:19;22.55;;;14.25;;
11197;SDS011;5655;48.744;9.162;2024-03-08T13:52:48;21.52;;;13.48;;
11197;SDS011;5655;48.744;9.162;2024-03-08T13:55:18;22.27;;;13.93;;
11197;SDS011;5655;48.744;9.162;2024-03-08T13:57:44;21.98;;;13.13;;
11197;SDS011;5655;48.744;9.162;2024-03-08T14:00:10;22.05;;;14.73;;
11197;SDS011;5655;48.744;9.162;2024-03-08T14:02:37;22.55;;;14.45;;
11197;SDS011;5655;48.744;9.162;2024-03-08T14:05:05;20.33;;;14.25;;
11197;SDS011;5655;48.744;9.162;2024-03-08T14:07:36;23.13;;;13.45;;
11197;SDS011;5655;48.744;9.162;2024-03-08T14:10:01;21.63;;;14.18;;
11197;SDS011;5655;48.744;9.162;2024-03-08T14:12:27;22.17;;;13.85;;
11197;SDS011;5655;48.744;9.162;2024-03-08T14:14:52;23.10;;;13.25;;
11197;SDS011;5655;48.744;9.162;2024-03-08T14:17:18;23.42;;;14.48;;
11197;SDS011;5655;48.744;9.162;2024-03-08T14:19:43;23.30;;;14.70;;
11197;SDS011;5655;48.744;9.162;2024-03-08T14:22:09;21.15;;;14.27;;
11197;SDS011;5655;48.744;9.162;2024-03-08T14:24:39;22.35;;;14.40;;
11197;SDS011;5655;48.744;9.162;2024-03-08T14:27:05;22.42;;;14.13;;
11197;SDS011;5655;48.744;9.162;2024-03-08T14:29:33;22.92;;;14.18;;
11197;SDS011;5655;48.744;9.162;2024-03-08T14:31:59;24.52;;;15.57;;
11197;SDS011;5655;48.744;9.162;2024-03-08T14:34:27;22.10;;;14.02;;
11197;SDS011;5655;48.744;9.162;2024-03-08T14:36:54;22.80;;;14.55;;
11197;SDS011;5655;48.744;9.162;2024-03-08T14:39:26;21.90;;;14.02;;
11197;SDS011;5655;48.744;9.162;2024-03-08T14:41:54;23.02;;;13.93;;
11197;SDS011;5655;48.744;9.162;2024-03-08T14:44:19;19.83;;;13.68;;
11197;SDS011;5655;48.744;9.162;2024-03-08T14:46:45;20.88;;;13.35;;
11197;SDS011;5655;48.744;9.162;2024-03-08T14:49:12;25.70;;;14.77;;
11197;SDS011;5655;48.744;9.162;2024-03-08T14:51:37;23.30;;;13.90;;